Bishop International Airport Flint US
ICAO: KFNT
IATA: FNT
Category: Medium
Scheduled Services: Yes

Elevation: 782 ft
TransAlt. 18000 ft.

Airport Communications:
FLINT APP/DEP:118.8
ATIS:133.15
CLNC DEL:121.75
CTAF:126.3
FLINT GND:121.9
LANSING RDO:122.3
FLINT TWR:126.3
UNICOM:122.95

KFNT Zoom In..

Runways:

(A) RW 09 length 7200 ft width 150 ft
ILS 109.90 / hdg 94

(B) RW 18 length 7848 ft width 150 ft
---- / hdg 185

(C) RW 27 length 7200 ft width 150 ft
ILS 109.90 / hdg 274

(D) RW 36 length 7848 ft width 150 ft
---- / hdg 5

Location; KFNT
Day. 21 / Time. 05.53 Zulu
* Altimeter: 29.74
* Temperature: 22° c. 71.6°f.
* Wind from: 160° Speed 11 kn.
Dewpoint: 16° c.
Visibility: 10 Statute Miles.
Clouds: Broken 2800 ft.

KFNT 210553Z AUTO 16011KT 10SM BKN028 22/16 A2974 RMK AO2 SLP068 T02170161 10250 20217 56008


Wind From 160°
Speed 11 kn.

 
 
jpsmedia.com for Web Design worldairports.se 2018   terms of use